sensor_id;sensor_type;location;lat;lon;timestamp;temperature;humidity
16477;DHT22;8349;50.928;6.376;2023-03-03T00:02:18;0.90;99.90
16477;DHT22;8349;50.928;6.376;2023-03-03T00:04:46;0.90;99.90
16477;DHT22;8349;50.928;6.376;2023-03-03T00:07:13;0.80;99.90
16477;DHT22;8349;50.928;6.376;2023-03-03T00:09:45;0.90;99.90
16477;DHT22;8349;50.928;6.376;2023-03-03T00:12:17;0.80;99.90
16477;DHT22;8349;50.928;6.376;2023-03-03T00:14:46;0.80;99.90
16477;DHT22;8349;50.928;6.376;2023-03-03T00:17:14;0.80;99.90
16477;DHT22;8349;50.928;6.376;2023-03-03T00:19:46;0.80;99.90
16477;DHT22;8349;50.928;6.376;2023-03-03T00:22:15;0.70;99.90
16477;DHT22;8349;50.928;6.376;2023-03-03T00:24:43;0.70;99.90
16477;DHT22;8349;50.928;6.376;2023-03-03T00:27:15;0.60;99.90
16477;DHT22;8349;50.928;6.376;2023-03-03T00:29:44;0.50;99.90
16477;DHT22;8349;50.928;6.376;2023-03-03T00:32:17;0.60;99.90
16477;DHT22;8349;50.928;6.376;2023-03-03T00:34:47;0.50;99.90
16477;DHT22;8349;50.928;6.376;2023-03-03T00:37:19;0.50;99.90
16477;DHT22;8349;50.928;6.376;2023-03-03T00:39:48;0.40;99.90
16477;DHT22;8349;50.928;6.376;2023-03-03T00:42:15;0.30;99.90
16477;DHT22;8349;50.928;6.376;2023-03-03T00:44:42;0.30;99.90
16477;DHT22;8349;50.928;6.376;2023-03-03T00:47:15;0.30;99.90
16477;DHT22;8349;50.928;6.376;2023-03-03T00:49:47;0.30;99.90
16477;DHT22;8349;50.928;6.376;2023-03-03T00:52:15;0.30;99.90
16477;DHT22;8349;50.928;6.376;2023-03-03T00:54:42;0.30;99.90
16477;DHT22;8349;50.928;6.376;2023-03-03T00:57:09;0.30;99.90
16477;DHT22;8349;50.928;6.376;2023-03-03T00:59:37;0.30;99.90
16477;DHT22;8349;50.928;6.376;2023-03-03T01:02:04;0.20;99.90
16477;DHT22;8349;50.928;6.376;2023-03-03T01:04:31;0.10;99.90
16477;DHT22;8349;50.928;6.376;2023-03-03T01:06:59;0.10;99.90
16477;DHT22;8349;50.928;6.376;2023-03-03T01:09:26;0.20;99.90
16477;DHT22;8349;50.928;6.376;2023-03-03T01:11:53;0.10;99.90
16477;DHT22;8349;50.928;6.376;2023-03-03T01:14:20;0.10;99.90
16477;DHT22;8349;50.928;6.376;2023-03-03T01:16:47;0.10;99.90
16477;DHT22;8349;50.928;6.376;2023-03-03T01:19:16;0.10;99.90
16477;DHT22;8349;50.928;6.376;2023-03-03T01:21:43;0.00;99.90
16477;DHT22;8349;50.928;6.376;2023-03-03T01:24:11;0.10;99.90
16477;DHT22;8349;50.928;6.376;2023-03-03T01:26:38;0.10;99.90
16477;DHT22;8349;50.928;6.376;2023-03-03T01:29:05;0.20;99.90
16477;DHT22;8349;50.928;6.376;2023-03-03T01:31:31;0.30;99.90
16477;DHT22;8349;50.928;6.376;2023-03-03T01:33:58;0.30;99.90
16477;DHT22;8349;50.928;6.376;2023-03-03T01:36:26;0.40;99.90
16477;DHT22;8349;50.928;6.376;2023-03-03T01:38:53;0.40;99.90
16477;DHT22;8349;50.928;6.376;2023-03-03T01:41:22;0.50;99.90
16477;DHT22;8349;50.928;6.376;2023-03-03T01:43:48;0.50;99.90
16477;DHT22;8349;50.928;6.376;2023-03-03T01:46:25;0.60;99.90
16477;DHT22;8349;50.928;6.376;2023-03-03T01:48:55;0.70;99.90
16477;DHT22;8349;50.928;6.376;2023-03-03T01:51:28;0.70;99.90
16477;DHT22;8349;50.928;6.376;2023-03-03T01:53:55;0.70;99.90
16477;DHT22;8349;50.928;6.376;2023-03-03T01:56:24;0.70;99.90
16477;DHT22;8349;50.928;6.376;2023-03-03T01:58:51;0.70;99.90
16477;DHT22;8349;50.928;6.376;2023-03-03T02:01:20;0.80;99.90
16477;DHT22;8349;50.928;6.376;2023-03-03T02:03:47;0.80;99.90
16477;DHT22;8349;50.928;6.376;2023-03-03T02:06:14;0.80;99.90
16477;DHT22;8349;50.928;6.376;2023-03-03T02:08:44;0.80;99.90
16477;DHT22;8349;50.928;6.376;2023-03-03T02:11:14;0.80;99.90
16477;DHT22;8349;50.928;6.376;2023-03-03T02:13:43;0.80;99.90
16477;DHT22;8349;50.928;6.376;2023-03-03T02:16:09;0.80;99.90
16477;DHT22;8349;50.928;6.376;2023-03-03T02:18:37;0.80;99.90
16477;DHT22;8349;50.928;6.376;2023-03-03T02:21:05;0.90;99.90
16477;DHT22;8349;50.928;6.376;2023-03-03T02:23:34;0.80;99.90
16477;DHT22;8349;50.928;6.376;2023-03-03T02:26:08;0.80;99.90
16477;DHT22;8349;50.928;6.376;2023-03-03T02:28:35;0.80;99.90
16477;DHT22;8349;50.928;6.376;2023-03-03T02:31:06;0.80;99.90
16477;DHT22;8349;50.928;6.376;2023-03-03T02:33:35;0.90;99.90
16477;DHT22;8349;50.928;6.376;2023-03-03T02:36:02;0.90;99.90
16477;DHT22;8349;50.928;6.376;2023-03-03T02:38:29;1.00;99.90
16477;DHT22;8349;50.928;6.376;2023-03-03T02:41:01;1.00;99.90
16477;DHT22;8349;50.928;6.376;2023-03-03T02:43:32;1.00;99.90
16477;DHT22;8349;50.928;6.376;2023-03-03T02:45:59;1.00;99.90
16477;DHT22;8349;50.928;6.376;2023-03-03T02:48:26;1.00;99.90
16477;DHT22;8349;50.928;6.376;2023-03-03T02:50:53;1.00;99.90
16477;DHT22;8349;50.928;6.376;2023-03-03T02:53:19;1.00;99.90
16477;DHT22;8349;50.928;6.376;2023-03-03T02:55:46;1.00;99.90
16477;DHT22;8349;50.928;6.376;2023-03-03T02:58:14;1.00;99.90
16477;DHT22;8349;50.928;6.376;2023-03-03T03:00:42;0.90;99.90
16477;DHT22;8349;50.928;6.376;2023-03-03T03:03:16;0.90;99.90
16477;DHT22;8349;50.928;6.376;2023-03-03T03:05:44;0.90;99.90
16477;DHT22;8349;50.928;6.376;2023-03-03T03:08:11;0.90;99.90
16477;DHT22;8349;50.928;6.376;2023-03-03T03:10:37;0.90;99.90
16477;DHT22;8349;50.928;6.376;2023-03-03T03:13:04;0.90;99.90
16477;DHT22;8349;50.928;6.376;2023-03-03T03:15:33;1.00;99.90
16477;DHT22;8349;50.928;6.376;2023-03-03T03:18:01;1.00;99.90
16477;DHT22;8349;50.928;6.376;2023-03-03T03:20:29;0.90;99.90
16477;DHT22;8349;50.928;6.376;2023-03-03T03:22:56;0.90;99.90
16477;DHT22;8349;50.928;6.376;2023-03-03T03:25:23;0.90;99.90
16477;DHT22;8349;50.928;6.376;2023-03-03T03:27:49;0.90;99.90
16477;DHT22;8349;50.928;6.376;2023-03-03T03:30:16;0.90;99.90
16477;DHT22;8349;50.928;6.376;2023-03-03T03:32:45;0.90;99.90
16477;DHT22;8349;50.928;6.376;2023-03-03T03:35:14;0.90;99.90
16477;DHT22;8349;50.928;6.376;2023-03-03T03:37:42;0.90;99.90
16477;DHT22;8349;50.928;6.376;2023-03-03T03:40:10;0.90;99.90
16477;DHT22;8349;50.928;6.376;2023-03-03T03:42:37;0.90;99.90
16477;DHT22;8349;50.928;6.376;2023-03-03T03:45:06;0.90;99.90
16477;DHT22;8349;50.928;6.376;2023-03-03T03:47:33;0.90;99.90
16477;DHT22;8349;50.928;6.376;2023-03-03T03:50:00;0.90;99.90
16477;DHT22;8349;50.928;6.376;2023-03-03T03:52:28;0.90;99.90
16477;DHT22;8349;50.928;6.376;2023-03-03T03:54:55;0.90;99.90
16477;DHT22;8349;50.928;6.376;2023-03-03T03:57:23;0.90;99.90
16477;DHT22;8349;50.928;6.376;2023-03-03T03:59:49;0.90;99.90
16477;DHT22;8349;50.928;6.376;2023-03-03T04:02:16;0.90;99.90
16477;DHT22;8349;50.928;6.376;2023-03-03T04:04:43;0.90;99.90
16477;DHT22;8349;50.928;6.376;2023-03-03T04:07:11;0.90;99.90
16477;DHT22;8349;50.928;6.376;2023-03-03T04:09:39;0.90;99.90
16477;DHT22;8349;50.928;6.376;2023-03-03T04:12:06;0.90;99.90
16477;DHT22;8349;50.928;6.376;2023-03-03T04:14:34;0.90;99.90
16477;DHT22;8349;50.928;6.376;2023-03-03T04:17:01;0.90;99.90
16477;DHT22;8349;50.928;6.376;2023-03-03T04:19:27;1.00;99.90
16477;DHT22;8349;50.928;6.376;2023-03-03T04:21:54;1.00;99.90
16477;DHT22;8349;50.928;6.376;2023-03-03T04:24:21;1.00;99.90
16477;DHT22;8349;50.928;6.376;2023-03-03T04:26:51;1.00;99.90
16477;DHT22;8349;50.928;6.376;2023-03-03T04:29:18;1.00;99.90
16477;DHT22;8349;50.928;6.376;2023-03-03T04:31:45;1.00;99.90
16477;DHT22;8349;50.928;6.376;2023-03-03T04:34:12;1.00;99.90
16477;DHT22;8349;50.928;6.376;2023-03-03T04:36:40;1.00;99.90
16477;DHT22;8349;50.928;6.376;2023-03-03T04:39:07;1.10;99.90
16477;DHT22;8349;50.928;6.376;2023-03-03T04:41:33;1.10;99.90
16477;DHT22;8349;50.928;6.376;2023-03-03T04:44:02;1.10;99.90
16477;DHT22;8349;50.928;6.376;2023-03-03T04:46:29;1.10;99.90
16477;DHT22;8349;50.928;6.376;2023-03-03T04:48:56;1.10;99.90
16477;DHT22;8349;50.928;6.376;2023-03-03T04:51:25;1.10;99.90
16477;DHT22;8349;50.928;6.376;2023-03-03T04:53:52;1.10;99.90
16477;DHT22;8349;50.928;6.376;2023-03-03T04:56:19;1.10;99.90
16477;DHT22;8349;50.928;6.376;2023-03-03T04:58:47;1.10;99.90
16477;DHT22;8349;50.928;6.376;2023-03-03T05:01:16;1.10;99.90
16477;DHT22;8349;50.928;6.376;2023-03-03T05:03:44;1.10;99.90
16477;DHT22;8349;50.928;6.376;2023-03-03T05:06:11;1.10;99.90
16477;DHT22;8349;50.928;6.376;2023-03-03T05:08:37;1.10;99.90
16477;DHT22;8349;50.928;6.376;2023-03-03T05:11:04;1.00;99.90
16477;DHT22;8349;50.928;6.376;2023-03-03T05:13:31;1.00;99.90
16477;DHT22;8349;50.928;6.376;2023-03-03T05:15:58;0.90;99.90
16477;DHT22;8349;50.928;6.376;2023-03-03T05:18:26;0.90;99.90
16477;DHT22;8349;50.928;6.376;2023-03-03T05:20:53;0.90;99.90
16477;DHT22;8349;50.928;6.376;2023-03-03T05:23:20;0.80;99.90
16477;DHT22;8349;50.928;6.376;2023-03-03T05:25:47;0.90;99.90
16477;DHT22;8349;50.928;6.376;2023-03-03T05:28:14;0.90;99.90
16477;DHT22;8349;50.928;6.376;2023-03-03T05:30:41;0.90;99.90
16477;DHT22;8349;50.928;6.376;2023-03-03T05:33:09;1.00;99.90
16477;DHT22;8349;50.928;6.376;2023-03-03T05:35:37;1.00;99.90
16477;DHT22;8349;50.928;6.376;2023-03-03T05:38:04;1.00;99.90
16477;DHT22;8349;50.928;6.376;2023-03-03T05:40:30;1.00;99.90
16477;DHT22;8349;50.928;6.376;2023-03-03T05:42:57;1.10;99.90
16477;DHT22;8349;50.928;6.376;2023-03-03T05:45:24;1.00;99.90
16477;DHT22;8349;50.928;6.376;2023-03-03T05:47:51;1.00;99.90
16477;DHT22;8349;50.928;6.376;2023-03-03T05:50:18;1.10;99.90
16477;DHT22;8349;50.928;6.376;2023-03-03T05:52:47;1.00;99.90
16477;DHT22;8349;50.928;6.376;2023-03-03T05:55:14;1.10;99.90
16477;DHT22;8349;50.928;6.376;2023-03-03T05:57:41;1.20;99.90
16477;DHT22;8349;50.928;6.376;2023-03-03T06:00:09;1.40;99.90
16477;DHT22;8349;50.928;6.376;2023-03-03T06:02:38;1.50;99.90
16477;DHT22;8349;50.928;6.376;2023-03-03T06:05:06;1.50;99.90
16477;DHT22;8349;50.928;6.376;2023-03-03T06:07:33;1.50;99.90
16477;DHT22;8349;50.928;6.376;2023-03-03T06:10:01;1.40;99.90
16477;DHT22;8349;50.928;6.376;2023-03-03T06:12:30;1.30;99.90
16477;DHT22;8349;50.928;6.376;2023-03-03T06:14:57;1.20;99.90
16477;DHT22;8349;50.928;6.376;2023-03-03T06:17:24;1.10;99.90
16477;DHT22;8349;50.928;6.376;2023-03-03T06:19:50;1.20;99.90
16477;DHT22;8349;50.928;6.376;2023-03-03T06:22:17;1.10;99.90
16477;DHT22;8349;50.928;6.376;2023-03-03T06:24:44;1.10;99.90
16477;DHT22;8349;50.928;6.376;2023-03-03T06:27:12;1.20;99.90
16477;DHT22;8349;50.928;6.376;2023-03-03T06:29:39;1.20;99.90
16477;DHT22;8349;50.928;6.376;2023-03-03T06:32:06;1.20;99.90
16477;DHT22;8349;50.928;6.376;2023-03-03T06:34:33;1.20;99.90
16477;DHT22;8349;50.928;6.376;2023-03-03T06:36:59;1.20;99.90
16477;DHT22;8349;50.928;6.376;2023-03-03T06:39:26;1.20;99.90
16477;DHT22;8349;50.928;6.376;2023-03-03T06:41:53;1.20;99.90
16477;DHT22;8349;50.928;6.376;2023-03-03T06:44:22;1.30;99.90
16477;DHT22;8349;50.928;6.376;2023-03-03T06:46:48;1.30;99.90
16477;DHT22;8349;50.928;6.376;2023-03-03T06:49:16;1.30;99.90
16477;DHT22;8349;50.928;6.376;2023-03-03T06:51:43;1.30;99.90
16477;DHT22;8349;50.928;6.376;2023-03-03T06:54:11;1.30;99.90
16477;DHT22;8349;50.928;6.376;2023-03-03T06:56:38;1.40;99.90
16477;DHT22;8349;50.928;6.376;2023-03-03T06:59:05;1.40;99.90
16477;DHT22;8349;50.928;6.376;2023-03-03T07:01:37;1.30;99.90
16477;DHT22;8349;50.928;6.376;2023-03-03T07:04:06;1.20;99.90
16477;DHT22;8349;50.928;6.376;2023-03-03T07:06:36;1.20;99.90
16477;DHT22;8349;50.928;6.376;2023-03-03T07:09:04;1.20;99.90
16477;DHT22;8349;50.928;6.376;2023-03-03T07:11:33;1.20;99.90
16477;DHT22;8349;50.928;6.376;2023-03-03T07:14:04;1.10;99.90
16477;DHT22;8349;50.928;6.376;2023-03-03T07:16:36;1.10;99.90
16477;DHT22;8349;50.928;6.376;2023-03-03T07:19:03;1.20;99.90
16477;DHT22;8349;50.928;6.376;2023-03-03T07:21:32;1.20;99.90
16477;DHT22;8349;50.928;6.376;2023-03-03T07:24:00;1.20;99.90
16477;DHT22;8349;50.928;6.376;2023-03-03T07:26:27;1.20;99.90
16477;DHT22;8349;50.928;6.376;2023-03-03T07:28:55;1.20;99.90
16477;DHT22;8349;50.928;6.376;2023-03-03T07:31:28;1.20;99.90
16477;DHT22;8349;50.928;6.376;2023-03-03T07:33:57;1.20;99.90
16477;DHT22;8349;50.928;6.376;2023-03-03T07:36:28;1.30;99.90
16477;DHT22;8349;50.928;6.376;2023-03-03T07:38:56;1.30;99.90
16477;DHT22;8349;50.928;6.376;2023-03-03T07:41:23;1.30;99.90
16477;DHT22;8349;50.928;6.376;2023-03-03T07:43:51;1.20;99.90
16477;DHT22;8349;50.928;6.376;2023-03-03T07:46:24;1.30;99.90
16477;DHT22;8349;50.928;6.376;2023-03-03T07:48:52;1.40;99.90
16477;DHT22;8349;50.928;6.376;2023-03-03T07:51:22;1.40;99.90
16477;DHT22;8349;50.928;6.376;2023-03-03T07:53:52;1.40;99.90
16477;DHT22;8349;50.928;6.376;2023-03-03T07:56:27;1.30;99.90
16477;DHT22;8349;50.928;6.376;2023-03-03T07:58:54;1.40;99.90
16477;DHT22;8349;50.928;6.376;2023-03-03T08:01:30;1.40;99.90
16477;DHT22;8349;50.928;6.376;2023-03-03T08:04:02;1.50;99.90
16477;DHT22;8349;50.928;6.376;2023-03-03T08:06:38;1.50;99.90
16477;DHT22;8349;50.928;6.376;2023-03-03T08:11:53;1.40;99.90
16477;DHT22;8349;50.928;6.376;2023-03-03T08:14:22;1.40;99.90
16477;DHT22;8349;50.928;6.376;2023-03-03T08:16:50;1.50;99.90
16477;DHT22;8349;50.928;6.376;2023-03-03T08:19:17;1.50;99.90
16477;DHT22;8349;50.928;6.376;2023-03-03T08:21:45;1.50;99.90
16477;DHT22;8349;50.928;6.376;2023-03-03T08:24:12;1.50;99.90
16477;DHT22;8349;50.928;6.376;2023-03-03T08:26:39;1.50;99.90
16477;DHT22;8349;50.928;6.376;2023-03-03T08:29:05;1.60;99.90
16477;DHT22;8349;50.928;6.376;2023-03-03T08:31:32;1.50;99.90
16477;DHT22;8349;50.928;6.376;2023-03-03T08:33:59;1.50;99.90
16477;DHT22;8349;50.928;6.376;2023-03-03T08:36:27;1.40;99.90
16477;DHT22;8349;50.928;6.376;2023-03-03T08:38:56;1.40;99.90
16477;DHT22;8349;50.928;6.376;2023-03-03T08:41:22;1.40;99.90
16477;DHT22;8349;50.928;6.376;2023-03-03T08:43:49;1.40;99.90
16477;DHT22;8349;50.928;6.376;2023-03-03T08:46:16;1.30;99.90
16477;DHT22;8349;50.928;6.376;2023-03-03T08:48:42;1.40;99.90
16477;DHT22;8349;50.928;6.376;2023-03-03T08:51:09;1.40;99.90
16477;DHT22;8349;50.928;6.376;2023-03-03T08:53:36;1.30;99.90
16477;DHT22;8349;50.928;6.376;2023-03-03T08:56:04;1.30;99.90
16477;DHT22;8349;50.928;6.376;2023-03-03T08:58:31;1.40;99.90
16477;DHT22;8349;50.928;6.376;2023-03-03T09:00:58;1.40;99.90
16477;DHT22;8349;50.928;6.376;2023-03-03T09:03:25;1.40;99.90
16477;DHT22;8349;50.928;6.376;2023-03-03T09:05:52;1.50;99.90
16477;DHT22;8349;50.928;6.376;2023-03-03T09:08:18;1.60;99.90
16477;DHT22;8349;50.928;6.376;2023-03-03T09:10:45;1.70;99.90
16477;DHT22;8349;50.928;6.376;2023-03-03T09:13:14;1.70;99.90
16477;DHT22;8349;50.928;6.376;2023-03-03T09:15:41;1.60;99.90
16477;DHT22;8349;50.928;6.376;2023-03-03T09:18:15;1.60;99.90
16477;DHT22;8349;50.928;6.376;2023-03-03T09:20:43;1.70;99.90
16477;DHT22;8349;50.928;6.376;2023-03-03T09:25:58;1.90;99.90
16477;DHT22;8349;50.928;6.376;2023-03-03T09:28:38;1.90;99.90
16477;DHT22;8349;50.928;6.376;2023-03-03T09:31:05;2.00;99.90
16477;DHT22;8349;50.928;6.376;2023-03-03T09:33:43;2.00;99.90
16477;DHT22;8349;50.928;6.376;2023-03-03T09:36:23;2.00;99.90
16477;DHT22;8349;50.928;6.376;2023-03-03T09:38:50;2.10;99.90
16477;DHT22;8349;50.928;6.376;2023-03-03T09:41:36;2.10;99.90
16477;DHT22;8349;50.928;6.376;2023-03-03T09:44:14;2.20;99.90
16477;DHT22;8349;50.928;6.376;2023-03-03T09:46:47;2.30;99.90
16477;DHT22;8349;50.928;6.376;2023-03-03T09:49:21;2.40;99.90
16477;DHT22;8349;50.928;6.376;2023-03-03T09:54:48;2.60;99.90
16477;DHT22;8349;50.928;6.376;2023-03-03T09:57:16;2.70;99.90
16477;DHT22;8349;50.928;6.376;2023-03-03T10:02:40;2.50;99.90
16477;DHT22;8349;50.928;6.376;2023-03-03T10:05:16;2.50;99.90
16477;DHT22;8349;50.928;6.376;2023-03-03T10:07:48;2.50;99.90
16477;DHT22;8349;50.928;6.376;2023-03-03T10:10:24;2.60;99.90
16477;DHT22;8349;50.928;6.376;2023-03-03T10:13:05;2.50;99.90
16477;DHT22;8349;50.928;6.376;2023-03-03T10:15:36;2.70;99.90
16477;DHT22;8349;50.928;6.376;2023-03-03T10:18:11;2.70;99.90
16477;DHT22;8349;50.928;6.376;2023-03-03T10:20:53;2.80;99.90
16477;DHT22;8349;50.928;6.376;2023-03-03T10:23:23;2.90;99.90
16477;DHT22;8349;50.928;6.376;2023-03-03T10:25:59;2.90;99.90
16477;DHT22;8349;50.928;6.376;2023-03-03T10:28:41;2.90;99.90
16477;DHT22;8349;50.928;6.376;2023-03-03T10:31:11;2.90;99.90
16477;DHT22;8349;50.928;6.376;2023-03-03T10:33:47;2.80;99.90
16477;DHT22;8349;50.928;6.376;2023-03-03T10:36:18;2.80;99.90
16477;DHT22;8349;50.928;6.376;2023-03-03T10:38:49;2.70;99.90
16477;DHT22;8349;50.928;6.376;2023-03-03T10:41:32;2.70;99.90
16477;DHT22;8349;50.928;6.376;2023-03-03T10:44:06;2.70;99.90
16477;DHT22;8349;50.928;6.376;2023-03-03T10:46:43;2.80;99.90
16477;DHT22;8349;50.928;6.376;2023-03-03T10:49:24;2.80;99.90
16477;DHT22;8349;50.928;6.376;2023-03-03T10:51:54;2.80;99.90
16477;DHT22;8349;50.928;6.376;2023-03-03T10:54:28;2.90;99.90
16477;DHT22;8349;50.928;6.376;2023-03-03T10:56:56;3.00;99.90
16477;DHT22;8349;50.928;6.376;2023-03-03T10:59:32;3.20;99.90
16477;DHT22;8349;50.928;6.376;2023-03-03T11:02:01;3.30;99.90
16477;DHT22;8349;50.928;6.376;2023-03-03T11:04:36;3.30;99.90
16477;DHT22;8349;50.928;6.376;2023-03-03T11:07:05;3.40;99.90
16477;DHT22;8349;50.928;6.376;2023-03-03T11:09:40;3.50;99.90
16477;DHT22;8349;50.928;6.376;2023-03-03T11:12:13;3.50;99.90
16477;DHT22;8349;50.928;6.376;2023-03-03T11:14:44;3.50;99.90
16477;DHT22;8349;50.928;6.376;2023-03-03T11:17:15;3.50;99.90
16477;DHT22;8349;50.928;6.376;2023-03-03T11:19:51;3.50;99.90
16477;DHT22;8349;50.928;6.376;2023-03-03T11:22:28;3.50;99.90
16477;DHT22;8349;50.928;6.376;2023-03-03T11:25:00;3.50;99.90
16477;DHT22;8349;50.928;6.376;2023-03-03T11:27:32;3.60;99.90
16477;DHT22;8349;50.928;6.376;2023-03-03T11:30:06;3.60;99.90
16477;DHT22;8349;50.928;6.376;2023-03-03T11:32:37;3.60;99.90
16477;DHT22;8349;50.928;6.376;2023-03-03T11:35:15;3.60;99.90
16477;DHT22;8349;50.928;6.376;2023-03-03T11:37:44;3.60;99.90
16477;DHT22;8349;50.928;6.376;2023-03-03T11:40:14;3.60;99.90
16477;DHT22;8349;50.928;6.376;2023-03-03T11:42:45;3.60;99.90
16477;DHT22;8349;50.928;6.376;2023-03-03T11:45:16;3.60;99.90
16477;DHT22;8349;50.928;6.376;2023-03-03T11:47:45;3.70;99.90
16477;DHT22;8349;50.928;6.376;2023-03-03T11:50:18;3.90;99.90
16477;DHT22;8349;50.928;6.376;2023-03-03T11:52:47;3.90;99.90
16477;DHT22;8349;50.928;6.376;2023-03-03T11:55:18;4.00;99.90
16477;DHT22;8349;50.928;6.376;2023-03-03T11:57:47;3.90;99.90
16477;DHT22;8349;50.928;6.376;2023-03-03T12:00:24;3.80;99.90
16477;DHT22;8349;50.928;6.376;2023-03-03T12:05:44;3.90;99.90
16477;DHT22;8349;50.928;6.376;2023-03-03T12:08:15;3.80;99.90
16477;DHT22;8349;50.928;6.376;2023-03-03T12:10:44;3.80;99.90
16477;DHT22;8349;50.928;6.376;2023-03-03T12:13:16;3.80;99.90
16477;DHT22;8349;50.928;6.376;2023-03-03T12:15:45;3.80;99.90
16477;DHT22;8349;50.928;6.376;2023-03-03T12:18:19;3.80;99.90
16477;DHT22;8349;50.928;6.376;2023-03-03T12:20:54;3.80;99.90
16477;DHT22;8349;50.928;6.376;2023-03-03T12:26:04;3.60;99.90
16477;DHT22;8349;50.928;6.376;2023-03-03T12:28:33;3.70;99.90
16477;DHT22;8349;50.928;6.376;2023-03-03T12:31:07;3.80;99.90
16477;DHT22;8349;50.928;6.376;2023-03-03T12:33:38;3.80;99.90
16477;DHT22;8349;50.928;6.376;2023-03-03T12:36:15;3.80;99.90
16477;DHT22;8349;50.928;6.376;2023-03-03T12:38:45;4.00;99.90
16477;DHT22;8349;50.928;6.376;2023-03-03T12:41:14;4.00;99.90
16477;DHT22;8349;50.928;6.376;2023-03-03T12:43:46;4.10;99.90
16477;DHT22;8349;50.928;6.376;2023-03-03T12:46:18;4.10;99.90
16477;DHT22;8349;50.928;6.376;2023-03-03T12:48:46;4.20;99.90
16477;DHT22;8349;50.928;6.376;2023-03-03T12:51:28;4.30;99.90
16477;DHT22;8349;50.928;6.376;2023-03-03T12:54:13;4.50;99.90
16477;DHT22;8349;50.928;6.376;2023-03-03T12:56:46;4.50;99.90
16477;DHT22;8349;50.928;6.376;2023-03-03T12:59:15;4.50;99.90
16477;DHT22;8349;50.928;6.376;2023-03-03T13:01:51;4.60;99.90
16477;DHT22;8349;50.928;6.376;2023-03-03T13:04:27;4.70;99.90
16477;DHT22;8349;50.928;6.376;2023-03-03T13:06:58;4.70;99.90
16477;DHT22;8349;50.928;6.376;2023-03-03T13:09:28;4.70;99.90
16477;DHT22;8349;50.928;6.376;2023-03-03T13:12:02;4.80;99.90
16477;DHT22;8349;50.928;6.376;2023-03-03T13:14:32;4.80;99.90
16477;DHT22;8349;50.928;6.376;2023-03-03T13:17:02;4.70;99.90
16477;DHT22;8349;50.928;6.376;2023-03-03T13:19:30;4.60;99.90
16477;DHT22;8349;50.928;6.376;2023-03-03T13:22:01;4.40;99.90
16477;DHT22;8349;50.928;6.376;2023-03-03T13:24:34;4.30;99.90
16477;DHT22;8349;50.928;6.376;2023-03-03T13:27:04;4.20;99.90
16477;DHT22;8349;50.928;6.376;2023-03-03T13:29:33;4.30;99.90
16477;DHT22;8349;50.928;6.376;2023-03-03T13:32:02;4.30;99.90
16477;DHT22;8349;50.928;6.376;2023-03-03T13:34:38;4.30;99.90
16477;DHT22;8349;50.928;6.376;2023-03-03T13:37:10;4.40;99.90
16477;DHT22;8349;50.928;6.376;2023-03-03T13:39:42;4.40;99.90
16477;DHT22;8349;50.928;6.376;2023-03-03T13:42:13;4.50;99.90
16477;DHT22;8349;50.928;6.376;2023-03-03T13:44:45;4.60;99.90
16477;DHT22;8349;50.928;6.376;2023-03-03T13:47:14;4.60;99.90
16477;DHT22;8349;50.928;6.376;2023-03-03T13:49:54;4.60;99.90
16477;DHT22;8349;50.928;6.376;2023-03-03T13:52:28;4.60;99.90
16477;DHT22;8349;50.928;6.376;2023-03-03T13:54:58;4.50;99.90
16477;DHT22;8349;50.928;6.376;2023-03-03T13:57:32;4.40;99.90
16477;DHT22;8349;50.928;6.376;2023-03-03T14:00:06;4.30;99.90
16477;DHT22;8349;50.928;6.376;2023-03-03T14:02:55;4.40;99.90
16477;DHT22;8349;50.928;6.376;2023-03-03T14:05:25;4.40;99.90
16477;DHT22;8349;50.928;6.376;2023-03-03T14:07:56;4.60;99.90
16477;DHT22;8349;50.928;6.376;2023-03-03T14:10:25;4.60;99.90
16477;DHT22;8349;50.928;6.376;2023-03-03T14:12:56;4.60;99.90
16477;DHT22;8349;50.928;6.376;2023-03-03T14:15:26;4.60;99.90
16477;DHT22;8349;50.928;6.376;2023-03-03T14:17:59;4.50;99.90
16477;DHT22;8349;50.928;6.376;2023-03-03T14:20:30;4.30;99.90
16477;DHT22;8349;50.928;6.376;2023-03-03T14:23:00;4.30;99.90
16477;DHT22;8349;50.928;6.376;2023-03-03T14:25:31;4.30;99.90
16477;DHT22;8349;50.928;6.376;2023-03-03T14:28:20;4.30;99.90
16477;DHT22;8349;50.928;6.376;2023-03-03T14:30:47;4.20;99.90
16477;DHT22;8349;50.928;6.376;2023-03-03T14:33:18;4.20;99.90
16477;DHT22;8349;50.928;6.376;2023-03-03T14:35:50;4.20;99.90
16477;DHT22;8349;50.928;6.376;2023-03-03T14:38:19;4.30;99.90
16477;DHT22;8349;50.928;6.376;2023-03-03T14:40:47;4.20;99.90
16477;DHT22;8349;50.928;6.376;2023-03-03T14:43:19;4.20;99.90
16477;DHT22;8349;50.928;6.376;2023-03-03T14:45:47;4.30;99.90
16477;DHT22;8349;50.928;6.376;2023-03-03T14:48:15;4.40;99.90
16477;DHT22;8349;50.928;6.376;2023-03-03T14:50:42;4.40;99.90
16477;DHT22;8349;50.928;6.376;2023-03-03T14:53:14;4.40;99.90
16477;DHT22;8349;50.928;6.376;2023-03-03T14:55:47;4.50;99.90
16477;DHT22;8349;50.928;6.376;2023-03-03T14:58:25;4.50;99.90
16477;DHT22;8349;50.928;6.376;2023-03-03T15:01:06;4.60;99.90
16477;DHT22;8349;50.928;6.376;2023-03-03T15:03:33;4.50;99.90
16477;DHT22;8349;50.928;6.376;2023-03-03T15:06:06;4.40;99.90
16477;DHT22;8349;50.928;6.376;2023-03-03T15:08:35;4.30;99.90
16477;DHT22;8349;50.928;6.376;2023-03-03T15:11:17;4.30;99.90
16477;DHT22;8349;50.928;6.376;2023-03-03T15:13:45;4.30;99.90
16477;DHT22;8349;50.928;6.376;2023-03-03T15:16:15;4.30;99.90
16477;DHT22;8349;50.928;6.376;2023-03-03T15:21:27;4.30;99.90
16477;DHT22;8349;50.928;6.376;2023-03-03T15:23:57;4.30;99.90
16477;DHT22;8349;50.928;6.376;2023-03-03T15:26:31;4.30;99.90
16477;DHT22;8349;50.928;6.376;2023-03-03T15:29:03;4.30;99.90
16477;DHT22;8349;50.928;6.376;2023-03-03T15:31:35;4.40;99.90
16477;DHT22;8349;50.928;6.376;2023-03-03T15:34:12;4.40;99.90
16477;DHT22;8349;50.928;6.376;2023-03-03T15:36:43;4.50;99.90
16477;DHT22;8349;50.928;6.376;2023-03-03T15:39:15;4.50;99.90
16477;DHT22;8349;50.928;6.376;2023-03-03T15:41:50;4.60;99.90
16477;DHT22;8349;50.928;6.376;2023-03-03T15:44:20;4.70;99.90
16477;DHT22;8349;50.928;6.376;2023-03-03T15:46:53;5.00;99.90
16477;DHT22;8349;50.928;6.376;2023-03-03T15:49:40;5.30;99.90
16477;DHT22;8349;50.928;6.376;2023-03-03T15:52:15;5.70;99.90
16477;DHT22;8349;50.928;6.376;2023-03-03T15:54:51;6.10;99.90
16477;DHT22;8349;50.928;6.376;2023-03-03T15:57:26;6.40;99.90
16477;DHT22;8349;50.928;6.376;2023-03-03T16:02:45;7.10;99.90
16477;DHT22;8349;50.928;6.376;2023-03-03T16:05:15;7.60;99.90
16477;DHT22;8349;50.928;6.376;2023-03-03T16:07:45;8.00;99.90
16477;DHT22;8349;50.928;6.376;2023-03-03T16:10:19;8.20;99.90
16477;DHT22;8349;50.928;6.376;2023-03-03T16:12:53;8.30;99.90
16477;DHT22;8349;50.928;6.376;2023-03-03T16:15:24;8.50;99.90
16477;DHT22;8349;50.928;6.376;2023-03-03T16:17:57;8.40;99.90
16477;DHT22;8349;50.928;6.376;2023-03-03T16:20:26;8.50;99.90
16477;DHT22;8349;50.928;6.376;2023-03-03T16:23:07;8.40;99.90
16477;DHT22;8349;50.928;6.376;2023-03-03T16:25:39;8.10;99.90
16477;DHT22;8349;50.928;6.376;2023-03-03T16:28:16;7.80;99.90
16477;DHT22;8349;50.928;6.376;2023-03-03T16:30:46;7.60;99.90
16477;DHT22;8349;50.928;6.376;2023-03-03T16:33:18;7.00;99.90
16477;DHT22;8349;50.928;6.376;2023-03-03T16:35:47;6.60;99.90
16477;DHT22;8349;50.928;6.376;2023-03-03T16:38:18;6.20;99.90
16477;DHT22;8349;50.928;6.376;2023-03-03T16:40:49;5.80;99.90
16477;DHT22;8349;50.928;6.376;2023-03-03T16:43:21;5.50;99.90